Kvitbjoern — LM9158 — position and weather

sailwx.info

Track history (hours):
 
Tides and Currents Weather Stations Pressure Air Temp Water Temp Dewpoint Dewpoint Depression Visibility Wind Speed Wind Dir Waves Ship Positions

Kvitbjoern

Last reported at 2015-Feb-26 11:18 UTC. Time now 2015-Mar-02 16:36 UTC.
Position N 66°22' E 012°21'.

Length 10 m.

Type: Fishing. MMSI: 257454420.

Date/timePositionNaut miles runAvg speedWind from/ knotsBaromVisibWave heightAir tempDewpointWater temp
2015-Feb-26 11:18N 66°22' E 012°21'0 0.0
2015-Feb-26 10:30N 66°22' E 012°21'5 2.0
2015-Feb-26 08:08N 66°22' E 012°33'3 5.9
2015-Feb-26 07:33N 66°22' E 012°25'1 0.1
2015-Feb-25 20:28N 66°22' E 012°21'0 0.0
2015-Feb-25 19:28N 66°22' E 012°21'0 0.0
2015-Feb-25 18:28N 66°22' E 012°21'0 0.0
2015-Feb-25 17:28N 66°22' E 012°21'0 0.0
2015-Feb-25 16:28N 66°22' E 012°21'0 0.0
2015-Feb-25 15:28N 66°22' E 012°21'0 0.0
2015-Feb-25 14:31N 66°22' E 012°21'2 2.2
2015-Feb-25 13:33N 66°22' E 012°27'1 0.5
2015-Feb-25 12:27N 66°22' E 012°26'0 0.3
2015-Feb-25 11:28N 66°22' E 012°27'1 0.7
2015-Feb-25 10:33N 66°21' E 012°26'0 0.5
2015-Feb-25 09:32N 66°21' E 012°25'1 1.4
2015-Feb-25 08:33N 66°22' E 012°22'2 1.7
2015-Feb-25 07:32N 66°22' E 012°27'1 1.5
2015-Feb-25 06:32N 66°21' E 012°25'2 0.1
2015-Feb-24 15:29N 66°22' E 012°21'0 0.0
2015-Feb-24 14:29N 66°22' E 012°21'0 0.0
2015-Feb-24 13:29N 66°22' E 012°21'0 0.0
2015-Feb-24 12:31N 66°22' E 012°21'  
Track history (hours):
 
Tides and Currents Weather Stations Pressure Air Temp Water Temp Dewpoint Dewpoint Depression Visibility Wind Speed Wind Dir Waves Ship Positions

Kvitbjoern

Last reported at 2015-Feb-26 11:18 UTC. Time now 2015-Mar-02 16:36 UTC.
Position N 66°22' E 012°21'.

Length 10 m.

Type: Fishing. MMSI: 257454420.

Date/timePositionNaut miles runAvg speedWind from/ knotsBaromVisibWave heightAir tempDewpointWater temp
2015-Feb-26 11:18N 66°22' E 012°21'0 0.0
2015-Feb-26 10:30N 66°22' E 012°21'5 2.0
2015-Feb-26 08:08N 66°22' E 012°33'3 5.9
2015-Feb-26 07:33N 66°22' E 012°25'1 0.1
2015-Feb-25 20:28N 66°22' E 012°21'0 0.0
2015-Feb-25 19:28N 66°22' E 012°21'0 0.0
2015-Feb-25 18:28N 66°22' E 012°21'0 0.0
2015-Feb-25 17:28N 66°22' E 012°21'0 0.0
2015-Feb-25 16:28N 66°22' E 012°21'0 0.0
2015-Feb-25 15:28N 66°22' E 012°21'0 0.0
2015-Feb-25 14:31N 66°22' E 012°21'2 2.2
2015-Feb-25 13:33N 66°22' E 012°27'1 0.5
2015-Feb-25 12:27N 66°22' E 012°26'0 0.3
2015-Feb-25 11:28N 66°22' E 012°27'1 0.7
2015-Feb-25 10:33N 66°21' E 012°26'0 0.5
2015-Feb-25 09:32N 66°21' E 012°25'1 1.4
2015-Feb-25 08:33N 66°22' E 012°22'2 1.7
2015-Feb-25 07:32N 66°22' E 012°27'1 1.5
2015-Feb-25 06:32N 66°21' E 012°25'2 0.1
2015-Feb-24 15:29N 66°22' E 012°21'0 0.0
2015-Feb-24 14:29N 66°22' E 012°21'0 0.0
2015-Feb-24 13:29N 66°22' E 012°21'0 0.0
2015-Feb-24 12:31N 66°22' E 012°21'  

Dump ship's entire track history